LEAL/ALC METAR and TAF weather

Enter ICAO airport designator
Station Type Date Time Source
LEAL METAR 2024/04/18 07:00 UTC NOAA

LEAL 180700Z VRB01KT 9999 SCT021 15/10 Q1016 NOSIG


Station Type Date Time Source
LEAL Decoded METAR 2024/04/18 07:00 UTC NOAA

Alicante / El Altet, Spain (LEAL) 38-17N 000-33W 31M
Apr 18, 2024 - 03:00 AM EDT / 2024.04.18 0700 UTC
Wind: Variable at 1 MPH (1 KT):0
Visibility: greater than 7 mile(s):0
Sky conditions: partly cloudy
Temperature: 59 F (15 C)
Dew Point: 50 F (10 C)
Relative Humidity: 72%
Pressure (altimeter): 30.00 in. Hg (1016 hPa)
ob: LEAL 180700Z VRB01KT 9999 SCT021 15/10 Q1016 NOSIG
cycle: 7

Station Type Date Time Source
LEAL TAF 2024/04/18 18:26 UTC NOAA